createdAt,value
2018-01-22T00:02:08.049Z,0.70
2018-01-22T00:04:36.373Z,0.70
2018-01-22T00:07:03.912Z,0.70
2018-01-22T00:09:31.434Z,0.60
2018-01-22T00:11:59.770Z,0.60
2018-01-22T00:14:27.289Z,0.50
2018-01-22T00:16:54.901Z,0.60
2018-01-22T00:19:22.466Z,0.50
2018-01-22T00:21:49.982Z,0.50
2018-01-22T00:24:18.281Z,0.60
2018-01-22T00:26:45.793Z,0.60
2018-01-22T00:29:13.329Z,0.60
2018-01-22T00:31:40.848Z,0.60
2018-01-22T00:34:10.121Z,0.60
2018-01-22T00:36:37.641Z,0.60
2018-01-22T00:39:05.194Z,0.60
2018-01-22T00:41:32.709Z,0.60
2018-01-22T00:44:01.019Z,0.60
2018-01-22T00:46:28.557Z,0.60
2018-01-22T00:48:56.073Z,0.60
2018-01-22T00:51:23.614Z,0.50
2018-01-22T00:53:51.134Z,0.50
2018-01-22T00:56:18.682Z,0.50
2018-01-22T00:58:46.197Z,0.50
2018-01-22T01:01:13.729Z,0.60
2018-01-22T01:03:42.009Z,0.60
2018-01-22T01:06:10.309Z,0.60
2018-01-22T01:08:37.820Z,0.60
2018-01-22T01:11:05.341Z,0.60
2018-01-22T01:13:32.880Z,0.60
2018-01-22T01:16:00.401Z,0.60
2018-01-22T01:18:27.942Z,0.60
2018-01-22T01:20:55.464Z,0.60
2018-01-22T01:23:23.006Z,0.60
2018-01-22T01:25:51.294Z,0.60
2018-01-22T01:28:19.761Z,0.60
2018-01-22T01:30:48.780Z,0.60
2018-01-22T01:33:17.090Z,0.60
2018-01-22T01:35:44.609Z,0.60
2018-01-22T01:38:12.908Z,0.60
2018-01-22T01:40:41.190Z,0.60
2018-01-22T01:43:08.725Z,0.60
2018-01-22T01:45:36.241Z,0.60
2018-01-22T01:48:03.782Z,0.70
2018-01-22T01:50:31.297Z,0.70
2018-01-22T01:52:58.826Z,0.80
2018-01-22T01:55:26.341Z,0.80
2018-01-22T01:57:55.077Z,0.90
2018-01-22T02:00:22.589Z,0.80
2018-01-22T02:02:50.870Z,0.80
2018-01-22T02:05:19.169Z,0.80
2018-01-22T02:07:46.741Z,0.70
2018-01-22T02:10:14.273Z,0.70
2018-01-22T02:12:42.586Z,0.70
2018-01-22T02:15:10.126Z,0.70
2018-01-22T02:17:37.651Z,0.60
2018-01-22T02:20:05.185Z,0.60
2018-01-22T02:22:32.705Z,0.70
2018-01-22T02:25:00.242Z,0.70
2018-01-22T02:27:27.852Z,0.70
2018-01-22T02:29:55.401Z,0.60
2018-01-22T02:32:22.918Z,0.60
2018-01-22T02:34:50.433Z,0.70
2018-01-22T02:37:17.969Z,0.60
2018-01-22T02:39:45.489Z,0.60
2018-01-22T02:42:13.026Z,0.60
2018-01-22T02:44:40.538Z,0.60
2018-01-22T02:47:08.851Z,0.60
2018-01-22T02:49:36.378Z,0.60
2018-01-22T02:52:04.685Z,0.60
2018-01-22T02:54:32.201Z,0.60
2018-01-22T02:56:59.732Z,0.60
2018-01-22T02:59:27.249Z,0.60
2018-01-22T03:01:55.553Z,0.60
2018-01-22T03:04:23.074Z,0.60
2018-01-22T03:06:50.605Z,0.60
2018-01-22T03:09:18.121Z,0.60
2018-01-22T03:11:46.401Z,0.70
2018-01-22T03:14:13.945Z,0.60
2018-01-22T03:16:42.229Z,0.60
2018-01-22T03:19:10.530Z,0.60
2018-01-22T03:21:38.045Z,0.60
2018-01-22T03:24:05.581Z,0.60
2018-01-22T03:26:33.097Z,0.60
2018-01-22T03:29:01.392Z,0.60
2018-01-22T03:31:28.905Z,0.50
2018-01-22T03:33:56.432Z,0.50
2018-01-22T03:36:23.945Z,0.50
2018-01-22T03:38:51.477Z,0.50
2018-01-22T03:41:18.993Z,0.50
2018-01-22T03:43:46.533Z,0.50
2018-01-22T03:46:14.810Z,0.40
2018-01-22T03:48:43.088Z,0.50
2018-01-22T03:51:10.619Z,0.40
2018-01-22T03:53:38.135Z,0.50
2018-01-22T03:56:05.677Z,0.50
2018-01-22T03:58:33.961Z,0.60
2018-01-22T04:01:02.261Z,0.50
2018-01-22T04:03:29.773Z,0.50
2018-01-22T04:05:57.315Z,0.40
2018-01-22T04:08:24.821Z,0.50
2018-01-22T04:10:53.117Z,0.50
2018-01-22T04:13:20.629Z,0.50
2018-01-22T04:15:48.162Z,0.50
2018-01-22T04:18:15.675Z,0.50
2018-01-22T04:20:43.222Z,0.50
2018-01-22T04:23:10.739Z,0.50
2018-01-22T04:25:38.258Z,0.50
2018-01-22T04:28:05.802Z,0.50
2018-01-22T04:30:33.321Z,0.50
2018-01-22T04:33:00.857Z,0.50
2018-01-22T04:35:29.133Z,0.50
2018-01-22T04:37:57.437Z,0.50
2018-01-22T04:40:24.962Z,0.50
2018-01-22T04:42:52.491Z,0.50
2018-01-22T04:45:20.024Z,0.50
2018-01-22T04:47:47.566Z,0.50
2018-01-22T04:50:15.849Z,0.40
2018-01-22T04:52:44.157Z,0.40
2018-01-22T04:55:11.682Z,0.40
2018-01-22T04:57:39.990Z,0.50
2018-01-22T05:00:07.513Z,0.40
2018-01-22T05:02:35.031Z,0.50
2018-01-22T05:05:02.579Z,0.50
2018-01-22T05:07:30.123Z,0.50
2018-01-22T05:09:57.658Z,0.50
2018-01-22T05:12:25.179Z,0.40
2018-01-22T05:14:52.709Z,0.40
2018-01-22T05:17:21.022Z,0.40
2018-01-22T05:19:48.557Z,0.30
2018-01-22T05:22:16.079Z,0.40
2018-01-22T05:24:43.608Z,0.50
2018-01-22T05:27:11.125Z,0.50
2018-01-22T05:29:39.430Z,0.40
2018-01-22T05:32:06.956Z,0.30
2018-01-22T05:34:35.268Z,0.40
2018-01-22T05:37:02.786Z,0.40
2018-01-22T05:39:30.300Z,0.40
2018-01-22T05:41:57.837Z,0.40
2018-01-22T05:44:26.118Z,0.40
2018-01-22T05:46:53.665Z,0.30
2018-01-22T05:49:21.950Z,0.30
2018-01-22T05:51:50.253Z,0.40
2018-01-22T05:54:17.769Z,0.40
2018-01-22T05:56:45.307Z,0.40
2018-01-22T05:59:12.825Z,0.40
2018-01-22T06:01:40.357Z,0.40
2018-01-22T06:04:08.638Z,0.40
2018-01-22T06:06:36.933Z,0.40
2018-01-22T06:09:05.218Z,0.40
2018-01-22T06:11:32.756Z,0.40
2018-01-22T06:14:01.043Z,0.40
2018-01-22T06:16:29.343Z,0.50
2018-01-22T06:18:56.857Z,0.50
2018-01-22T06:21:24.393Z,0.50
2018-01-22T06:23:51.910Z,0.40
2018-01-22T06:26:20.209Z,0.40
2018-01-22T06:28:47.725Z,0.40
2018-01-22T06:31:15.261Z,0.40
2018-01-22T06:33:42.773Z,0.40
2018-01-22T06:36:11.055Z,0.40
2018-01-22T06:38:39.362Z,0.40
2018-01-22T06:41:06.878Z,0.40
2018-01-22T06:43:34.413Z,0.30
2018-01-22T06:46:01.924Z,0.30
2018-01-22T06:48:30.227Z,0.40
2018-01-22T06:50:57.738Z,0.40
2018-01-22T06:53:25.273Z,0.40
2018-01-22T06:55:52.800Z,0.40
2018-01-22T06:58:20.360Z,0.30
2018-01-22T07:00:47.876Z,0.30
2018-01-22T07:03:15.424Z,0.40
2018-01-22T07:05:42.947Z,0.30
2018-01-22T07:08:10.488Z,0.30
2018-01-22T07:10:38.006Z,0.40
2018-01-22T07:13:05.541Z,0.40
2018-01-22T07:15:33.062Z,0.30
2018-01-22T07:18:01.362Z,0.30
2018-01-22T07:20:28.879Z,0.30
2018-01-22T07:22:56.417Z,0.30
2018-01-22T07:25:23.942Z,0.30
2018-01-22T07:27:51.480Z,0.20
2018-01-22T07:30:19.767Z,0.30
2018-01-22T07:32:48.075Z,0.40
2018-01-22T07:35:15.592Z,0.30
2018-01-22T07:37:43.892Z,0.40
2018-01-22T07:40:11.410Z,0.40
2018-01-22T07:42:38.928Z,0.50
2018-01-22T07:45:06.466Z,0.50
2018-01-22T07:47:33.984Z,0.50
2018-01-22T07:50:01.532Z,0.50
2018-01-22T07:52:29.055Z,0.50
2018-01-22T07:54:56.597Z,0.50
2018-01-22T07:57:24.877Z,0.60
2018-01-22T07:59:53.176Z,0.60
2018-01-22T08:02:20.693Z,0.60
2018-01-22T08:04:48.224Z,0.60
2018-01-22T08:07:15.741Z,0.60
2018-01-22T08:09:44.051Z,0.60
2018-01-22T08:12:11.570Z,0.50
2018-01-22T08:14:39.865Z,0.60
2018-01-22T08:19:41.238Z,0.70
2018-01-22T08:22:08.759Z,0.70
2018-01-22T08:24:36.298Z,0.70
2018-01-22T08:27:03.814Z,0.70
2018-01-22T08:29:31.397Z,0.70
2018-01-22T08:31:58.910Z,0.80
2018-01-22T08:34:26.444Z,0.80
2018-01-22T08:36:53.972Z,0.90
2018-01-22T08:39:21.517Z,0.90
2018-01-22T08:41:49.104Z,0.90
2018-01-22T08:44:16.624Z,1.00
2018-01-22T08:46:44.938Z,1.00
2018-01-22T08:49:12.469Z,0.90
2018-01-22T08:51:40.766Z,1.00
2018-01-22T08:54:08.277Z,1.00
2018-01-22T08:56:35.894Z,1.10
2018-01-22T08:59:03.411Z,1.10
2018-01-22T09:01:31.709Z,1.20
2018-01-22T09:03:59.991Z,1.20
2018-01-22T09:06:27.526Z,1.20
2018-01-22T09:08:55.037Z,1.20
2018-01-22T09:11:22.569Z,1.30
2018-01-22T09:13:50.076Z,1.30
2018-01-22T09:16:17.605Z,1.40
2018-01-22T09:18:45.117Z,1.40
2018-01-22T09:21:12.650Z,1.50
2018-01-22T09:23:40.171Z,1.50
2018-01-22T09:26:07.707Z,1.50
2018-01-22T09:28:36.035Z,1.50
2018-01-22T09:31:03.601Z,1.50
2018-01-22T09:33:31.882Z,1.50
2018-01-22T09:35:59.397Z,1.50
2018-01-22T09:38:27.694Z,1.50
2018-01-22T09:40:55.206Z,1.50
2018-01-22T09:43:22.750Z,1.60
2018-01-22T09:45:50.265Z,1.60
2018-01-22T09:48:17.810Z,1.70
2018-01-22T09:50:46.089Z,1.70
2018-01-22T09:53:14.391Z,1.60
2018-01-22T09:55:41.908Z,1.60
2018-01-22T09:58:09.445Z,1.50
2018-01-22T10:00:36.966Z,1.50
2018-01-22T10:03:04.522Z,1.40
2018-01-22T10:05:32.041Z,1.40
2018-01-22T10:07:59.577Z,1.40
2018-01-22T10:10:27.096Z,1.50
2018-01-22T10:12:54.630Z,1.40
2018-01-22T10:15:22.146Z,1.40
2018-01-22T10:17:49.686Z,1.40
2018-01-22T10:20:17.202Z,1.40
2018-01-22T10:22:44.715Z,1.30
2018-01-22T10:25:12.260Z,1.30
2018-01-22T10:27:39.782Z,1.40
2018-01-22T10:30:07.323Z,1.40
2018-01-22T10:32:34.839Z,1.50
2018-01-22T10:35:02.377Z,1.50
2018-01-22T10:37:30.665Z,1.70
2018-01-22T10:39:58.978Z,1.80
2018-01-22T10:42:26.491Z,1.80
2018-01-22T10:44:54.782Z,2.00
2018-01-22T10:47:23.088Z,2.10
2018-01-22T10:49:50.612Z,2.10
2018-01-22T10:52:18.916Z,2.20
2018-01-22T10:54:46.442Z,2.20
2018-01-22T10:57:14.754Z,2.30
2018-01-22T10:59:42.273Z,2.30
2018-01-22T11:02:11.329Z,2.20
2018-01-22T11:04:38.836Z,2.20
2018-01-22T11:07:06.354Z,2.20
2018-01-22T11:09:33.890Z,2.20
2018-01-22T11:12:01.411Z,2.10
2018-01-22T11:14:28.936Z,2.20
2018-01-22T11:16:56.449Z,2.20
2018-01-22T11:19:24.762Z,2.30
2018-01-22T11:21:52.294Z,2.30
2018-01-22T11:24:20.598Z,2.30
2018-01-22T11:26:48.113Z,2.30
2018-01-22T11:29:15.654Z,2.30
2018-01-22T11:31:43.169Z,2.20
2018-01-22T11:34:10.709Z,2.10
2018-01-22T11:36:38.997Z,2.10
2018-01-22T11:39:07.302Z,2.10
2018-01-22T11:41:34.818Z,2.00
2018-01-22T11:44:02.351Z,2.10
2018-01-22T11:46:29.875Z,2.10
2018-01-22T11:48:57.427Z,2.20
2018-01-22T11:51:24.954Z,2.30
2018-01-22T11:53:52.497Z,2.40
2018-01-22T11:56:20.022Z,2.30
2018-01-22T11:58:47.542Z,2.30
2018-01-22T12:01:15.086Z,2.30
2018-01-22T12:03:42.606Z,2.20
2018-01-22T12:06:10.177Z,2.10
2018-01-22T12:08:37.698Z,2.10
2018-01-22T12:11:06.006Z,2.00
2018-01-22T12:13:33.524Z,2.00
2018-01-22T12:16:01.136Z,2.00
2018-01-22T12:18:28.667Z,2.00
2018-01-22T12:20:56.981Z,2.00
2018-01-22T12:23:24.510Z,2.00
2018-01-22T12:25:52.204Z,2.00
2018-01-22T12:28:19.745Z,2.00
2018-01-22T12:30:47.270Z,2.00
2018-01-22T12:33:14.817Z,1.90
2018-01-22T12:35:42.336Z,1.90
2018-01-22T12:38:09.873Z,2.00
2018-01-22T12:40:38.160Z,2.00
2018-01-22T12:43:05.703Z,2.00
2018-01-22T12:45:33.994Z,1.90
2018-01-22T12:48:01.518Z,1.90
2018-01-22T12:50:29.062Z,1.90
2018-01-22T12:52:56.586Z,1.80
2018-01-22T12:55:24.173Z,1.80
2018-01-22T12:57:51.692Z,1.70
2018-01-22T13:00:20.000Z,1.70
2018-01-22T13:02:47.523Z,1.70
2018-01-22T13:05:15.825Z,1.70
2018-01-22T13:07:43.344Z,1.70
2018-01-22T13:10:10.890Z,1.70
2018-01-22T13:12:38.406Z,1.70
2018-01-22T13:15:05.985Z,1.80
2018-01-22T13:17:33.525Z,1.80
2018-01-22T13:20:01.050Z,1.80
2018-01-22T13:22:28.585Z,1.80
2018-01-22T13:24:56.103Z,1.80
2018-01-22T13:27:23.642Z,1.80
2018-01-22T13:29:51.934Z,1.90
2018-01-22T13:32:19.525Z,1.80
2018-01-22T13:34:47.049Z,1.80
2018-01-22T13:37:15.351Z,1.70
2018-01-22T13:39:42.879Z,1.70
2018-01-22T13:42:11.185Z,1.70
2018-01-22T13:44:38.713Z,1.60
2018-01-22T13:47:06.229Z,1.70
2018-01-22T13:49:33.769Z,1.70
2018-01-22T13:52:01.296Z,1.80
2018-01-22T13:54:29.610Z,1.70
2018-01-22T13:56:57.185Z,1.70
2018-01-22T13:59:24.738Z,1.70
2018-01-22T14:01:52.266Z,1.70
2018-01-22T14:04:20.575Z,1.60
2018-01-22T14:06:48.097Z,1.60
2018-01-22T14:09:16.405Z,1.70
2018-01-22T14:11:43.926Z,1.70
2018-01-22T14:14:11.437Z,1.80
2018-01-22T14:16:38.978Z,1.80
2018-01-22T14:19:07.257Z,1.90
2018-01-22T14:21:35.556Z,2.00
2018-01-22T14:24:03.125Z,1.90
2018-01-22T14:26:30.693Z,1.90
2018-01-22T14:28:58.209Z,1.90
2018-01-22T14:31:26.518Z,1.80
2018-01-22T14:33:54.038Z,1.70
2018-01-22T14:36:22.326Z,1.60
2018-01-22T14:38:50.629Z,1.60
2018-01-22T14:41:18.146Z,1.60
2018-01-22T14:43:45.678Z,1.60
2018-01-22T14:46:13.197Z,1.60
2018-01-22T14:48:40.733Z,1.60
2018-01-22T14:51:09.025Z,1.50
2018-01-22T14:53:37.331Z,1.50
2018-01-22T14:56:04.857Z,1.50
2018-01-22T14:58:33.167Z,1.50
2018-01-22T15:01:00.689Z,1.50
2018-01-22T15:03:28.219Z,1.50
2018-01-22T15:05:55.756Z,1.50
2018-01-22T15:08:23.273Z,1.50
2018-01-22T15:10:50.813Z,1.50
2018-01-22T15:13:18.341Z,1.50
2018-01-22T15:15:45.887Z,1.50
2018-01-22T15:18:13.411Z,1.50
2018-01-22T15:20:40.954Z,1.50
2018-01-22T15:23:08.479Z,1.50
2018-01-22T15:25:36.026Z,1.40
2018-01-22T15:28:04.314Z,1.40
2018-01-22T15:30:31.837Z,1.40
2018-01-22T15:32:59.382Z,1.40
2018-01-22T15:35:26.956Z,1.40
2018-01-22T15:37:54.478Z,1.40
2018-01-22T15:40:22.002Z,1.30
2018-01-22T15:42:50.301Z,1.30
2018-01-22T15:45:17.821Z,1.30
2018-01-22T15:47:45.370Z,1.30
2018-01-22T15:50:12.889Z,1.30
2018-01-22T15:52:40.437Z,1.40
2018-01-22T15:55:07.953Z,1.40
2018-01-22T15:57:35.473Z,1.40
2018-01-22T16:00:03.019Z,1.40
2018-01-22T16:02:30.541Z,1.40
2018-01-22T16:04:58.840Z,1.40
2018-01-22T16:07:27.120Z,1.30
2018-01-22T16:09:55.421Z,1.30
2018-01-22T16:12:22.940Z,1.30
2018-01-22T16:14:50.477Z,1.40
2018-01-22T16:17:18.002Z,1.40
2018-01-22T16:19:45.574Z,1.30
2018-01-22T16:22:13.847Z,1.30
2018-01-22T16:24:41.367Z,1.30
2018-01-22T16:27:08.985Z,1.30
2018-01-22T16:29:36.502Z,1.30
2018-01-22T16:32:04.805Z,1.30
2018-01-22T16:34:32.321Z,1.30
2018-01-22T16:36:59.856Z,1.30
2018-01-22T16:39:27.377Z,1.40
2018-01-22T16:41:54.915Z,1.30
2018-01-22T16:44:22.430Z,1.40
2018-01-22T16:49:49.749Z,1.40
2018-01-22T16:52:18.057Z,1.40
2018-01-22T16:54:45.581Z,1.40
2018-01-22T16:57:13.118Z,1.40
2018-01-22T16:59:40.641Z,1.40
2018-01-22T17:02:08.197Z,1.30
2018-01-22T17:04:35.722Z,1.30
2018-01-22T17:07:03.241Z,1.30
2018-01-22T17:09:30.777Z,1.30
2018-01-22T17:11:58.293Z,1.30
2018-01-22T17:14:25.829Z,1.30
2018-01-22T17:16:53.370Z,1.30
2018-01-22T17:19:20.917Z,1.30
2018-01-22T17:21:48.442Z,1.20
2018-01-22T17:24:15.987Z,1.20
2018-01-22T17:26:43.534Z,1.30
2018-01-22T17:29:11.183Z,1.20
2018-01-22T17:31:38.805Z,1.20
2018-01-22T17:34:07.127Z,1.30
2018-01-22T17:36:34.652Z,1.20
2018-01-22T17:39:02.938Z,1.30
2018-01-22T17:41:31.243Z,1.30
2018-01-22T17:43:58.766Z,1.30
2018-01-22T17:46:27.070Z,1.30
2018-01-22T17:48:54.644Z,1.30
2018-01-22T17:51:22.181Z,1.30
2018-01-22T17:53:49.697Z,1.30
2018-01-22T17:56:17.232Z,1.30
2018-01-22T17:58:44.757Z,1.30
2018-01-22T18:01:12.301Z,1.30
2018-01-22T18:03:40.586Z,1.30
2018-01-22T18:06:08.890Z,1.30
2018-01-22T18:08:36.425Z,1.30
2018-01-22T18:11:04.713Z,1.30
2018-01-22T18:13:33.060Z,1.30
2018-01-22T18:16:00.724Z,1.20
2018-01-22T18:18:28.266Z,1.20
2018-01-22T18:20:55.782Z,1.20
2018-01-22T18:23:24.090Z,1.20
2018-01-22T18:25:51.612Z,1.20
2018-01-22T18:28:19.916Z,1.20
2018-01-22T18:30:47.433Z,1.20
2018-01-22T18:33:14.974Z,1.20
2018-01-22T18:35:42.499Z,1.20
2018-01-22T18:38:10.018Z,1.20
2018-01-22T18:40:38.430Z,1.20
2018-01-22T18:43:06.744Z,1.30
2018-01-22T18:45:34.348Z,1.20
2018-01-22T18:48:02.641Z,1.30
2018-01-22T18:50:30.189Z,1.30
2018-01-22T18:52:58.530Z,1.40
2018-01-22T18:55:26.074Z,1.40
2018-01-22T18:57:53.611Z,1.50
2018-01-22T19:00:21.159Z,1.50
2018-01-22T19:02:49.447Z,1.60
2018-01-22T19:05:17.046Z,1.60
2018-01-22T19:07:44.625Z,1.80
2018-01-22T19:10:12.165Z,1.80
2018-01-22T19:12:39.755Z,1.80
2018-01-22T19:15:07.283Z,1.90
2018-01-22T19:17:34.876Z,2.00
2018-01-22T19:20:02.399Z,2.00
2018-01-22T19:22:29.984Z,2.00
2018-01-22T19:24:57.557Z,2.10
2018-01-22T19:27:25.139Z,2.10
2018-01-22T19:29:52.708Z,2.10
2018-01-22T19:32:21.014Z,2.20
2018-01-22T19:34:48.544Z,2.20
2018-01-22T19:37:16.901Z,2.20
2018-01-22T19:39:44.478Z,2.20
2018-01-22T19:42:12.833Z,2.30
2018-01-22T19:44:40.400Z,2.30
2018-01-22T19:47:07.952Z,2.30
2018-01-22T19:49:35.480Z,2.40
2018-01-22T19:52:03.015Z,2.40
2018-01-22T19:54:31.327Z,2.50
2018-01-22T19:56:58.945Z,2.40
2018-01-22T19:59:27.250Z,2.40
2018-01-22T20:01:54.782Z,2.40
2018-01-22T20:04:22.326Z,2.40
2018-01-22T20:06:49.849Z,2.40
2018-01-22T20:09:17.447Z,2.40
2018-01-22T20:11:44.965Z,2.30
2018-01-22T20:14:12.567Z,2.20
2018-01-22T20:16:40.091Z,2.00
2018-01-22T20:19:07.696Z,1.90
2018-01-22T20:21:35.264Z,1.80
2018-01-22T20:24:02.791Z,1.80
2018-01-22T20:26:30.392Z,1.80
2018-01-22T20:28:57.913Z,1.80
2018-01-22T20:31:25.508Z,1.90
2018-01-22T20:33:53.089Z,1.90
2018-01-22T20:36:21.453Z,2.00
2018-01-22T20:38:49.028Z,2.00
2018-01-22T20:41:16.625Z,2.10
2018-01-22T20:43:44.209Z,2.20
2018-01-22T20:46:11.757Z,2.30
2018-01-22T20:48:39.435Z,2.30
2018-01-22T20:51:06.981Z,2.40
2018-01-22T20:53:34.547Z,2.40
2018-01-22T20:56:02.138Z,2.40
2018-01-22T20:58:29.735Z,2.40
2018-01-22T21:00:58.033Z,2.40
2018-01-22T21:03:25.669Z,2.40
2018-01-22T21:05:53.238Z,2.40
2018-01-22T21:08:21.555Z,2.30
2018-01-22T21:10:49.137Z,2.30
2018-01-22T21:13:16.730Z,2.30
2018-01-22T21:15:44.304Z,2.20
2018-01-22T21:18:12.629Z,2.20
2018-01-22T21:20:40.151Z,2.10
2018-01-22T21:23:08.492Z,2.10
2018-01-22T21:25:36.043Z,2.10
2018-01-22T21:28:03.607Z,2.10
2018-01-22T21:30:31.184Z,2.10
2018-01-22T21:32:58.856Z,2.20
2018-01-22T21:35:26.398Z,2.20
2018-01-22T21:37:53.926Z,2.30
2018-01-22T21:40:21.508Z,2.40
2018-01-22T21:42:49.086Z,2.40
2018-01-22T21:45:16.627Z,2.40
2018-01-22T21:47:44.152Z,2.50
2018-01-22T21:50:12.482Z,2.50
2018-01-22T21:52:40.057Z,2.40
2018-01-22T21:55:07.628Z,2.50
2018-01-22T21:57:35.308Z,2.40
2018-01-22T22:00:03.609Z,2.40
2018-01-22T22:02:31.211Z,2.40
2018-01-22T22:04:58.779Z,2.40
2018-01-22T22:07:26.356Z,2.50
2018-01-22T22:09:53.877Z,2.50
2018-01-22T22:12:21.420Z,2.50
2018-01-22T22:14:48.946Z,2.50
2018-01-22T22:17:16.500Z,2.60
2018-01-22T22:19:44.067Z,2.50
2018-01-22T22:22:11.598Z,2.60
2018-01-22T22:24:39.184Z,2.50
2018-01-22T22:27:06.716Z,2.50
2018-01-22T22:29:34.297Z,2.50
2018-01-22T22:32:01.826Z,2.50
2018-01-22T22:34:29.389Z,2.50
2018-01-22T22:36:56.913Z,2.50
2018-01-22T22:39:25.221Z,2.40
2018-01-22T22:41:52.749Z,2.40
2018-01-22T22:44:21.067Z,2.40
2018-01-22T22:46:48.599Z,2.40
2018-01-22T22:49:16.889Z,2.30
2018-01-22T22:51:44.431Z,2.30
2018-01-22T22:54:12.727Z,2.40
2018-01-22T22:56:40.273Z,2.40
2018-01-22T22:59:08.565Z,2.50
2018-01-22T23:01:36.111Z,2.50
2018-01-22T23:04:04.406Z,2.60
2018-01-22T23:06:31.945Z,2.60
2018-01-22T23:09:00.237Z,2.70
2018-01-22T23:11:27.793Z,2.60
2018-01-22T23:13:55.320Z,2.70
2018-01-22T23:16:22.846Z,2.70
2018-01-22T23:18:50.400Z,2.70
2018-01-22T23:21:17.926Z,2.70
2018-01-22T23:23:46.244Z,2.70
2018-01-22T23:26:13.770Z,2.70
2018-01-22T23:28:42.084Z,2.70
2018-01-22T23:31:09.604Z,2.70
2018-01-22T23:33:37.913Z,2.70
2018-01-22T23:36:05.437Z,2.60
2018-01-22T23:38:33.748Z,2.70
2018-01-22T23:41:01.268Z,2.70
2018-01-22T23:43:28.826Z,2.70
2018-01-22T23:45:56.371Z,2.70
2018-01-22T23:48:23.893Z,2.70
2018-01-22T23:50:51.443Z,2.70
2018-01-22T23:53:18.977Z,2.70
2018-01-22T23:55:47.295Z,2.70
2018-01-22T23:58:14.821Z,2.70
